Time;durP1;ratioP1;P1;durP2;ratioP2;P2;SDS_P1;SDS_P2;PMS_P1;PMS_P2;Temp;Humidity;BMP_temperature;BMP_pressure;BME280_temperature;BME280_humidity;BME280_pressure;Samples;Min_cycle;Max_cycle;Signal;HPM_P1;HPM_P2
2023/07/25 00:01:24;;;;;;;0.10;0.10;;;14.20;65.50;;;;;;5031118;28;20219;-48
2023/07/25 00:03:55;;;;;;;0.10;0.10;;;14.20;65.50;;;;;;5029178;28;20196;-47
2023/07/25 00:06:25;;;;;;;0.10;0.10;;;14.20;65.60;;;;;;5043066;28;20199;-48
2023/07/25 00:08:58;;;;;;;0.10;0.10;;;14.20;65.70;;;;;;5040821;28;20542;-46
2023/07/25 00:11:28;;;;;;;0.10;0.10;;;14.20;65.80;;;;;;5040396;28;20219;-46
2023/07/25 00:13:59;;;;;;;0.10;0.10;;;14.30;65.90;;;;;;5038910;28;20576;-48
2023/07/25 00:16:30;;;;;;;0.10;0.10;;;14.30;66.00;;;;;;5030762;28;20200;-48
2023/07/25 00:19:00;;;;;;;0.10;0.10;;;14.30;66.00;;;;;;5032591;28;20196;-49
2023/07/25 00:21:31;;;;;;;0.10;0.10;;;14.40;66.00;;;;;;5036307;28;20193;-46
2023/07/25 00:24:04;;;;;;;0.10;0.10;;;14.40;66.10;;;;;;5033586;28;20196;-46
2023/07/25 00:26:34;;;;;;;0.10;0.10;;;14.40;66.10;;;;;;5032844;28;20200;-48
2023/07/25 00:29:05;;;;;;;0.10;0.10;;;14.40;66.10;;;;;;5033507;28;20204;-46
2023/07/25 00:31:35;;;;;;;0.20;0.20;;;14.40;66.10;;;;;;5035721;28;20286;-47
2023/07/25 00:34:06;;;;;;;0.10;0.10;;;14.50;66.10;;;;;;5032957;28;20231;-46
2023/07/25 00:36:37;;;;;;;0.20;0.20;;;14.50;66.10;;;;;;5044566;28;20214;-48
2023/07/25 00:39:10;;;;;;;0.10;0.10;;;14.50;66.10;;;;;;5032946;28;20204;-46
2023/07/25 00:41:41;;;;;;;0.10;0.10;;;14.50;66.20;;;;;;5033487;28;20208;-45
2023/07/25 00:44:12;;;;;;;0.10;0.10;;;14.50;66.20;;;;;;5036848;28;20195;-48
2023/07/25 00:46:44;;;;;;;0.13;0.13;;;14.60;66.40;;;;;;5047401;28;20273;-50
2023/07/25 00:49:15;;;;;;;0.10;0.10;;;14.60;66.50;;;;;;5044279;28;20195;-48
2023/07/25 00:51:46;;;;;;;0.10;0.10;;;14.60;66.50;;;;;;5032664;28;20250;-46
2023/07/25 00:54:18;;;;;;;0.10;0.10;;;14.60;66.60;;;;;;5042849;28;20229;-46
2023/07/25 00:56:49;;;;;;;0.10;0.10;;;14.70;66.70;;;;;;5048924;28;20224;-46
2023/07/25 00:59:19;;;;;;;0.10;0.10;;;14.70;66.70;;;;;;5043089;28;20199;-47
2023/07/25 01:01:50;;;;;;;0.10;0.10;;;14.70;66.50;;;;;;5047051;28;20195;-48
2023/07/25 01:04:21;;;;;;;0.10;0.10;;;14.80;66.60;;;;;;5052914;28;20187;-48
2023/07/25 01:06:52;;;;;;;0.10;0.10;;;14.80;66.50;;;;;;5053081;28;20223;-48
2023/07/25 01:09:39;;;;;;;0.10;0.10;;;14.80;66.40;;;;;;5052070;28;20196;-48
2023/07/25 01:12:11;;;;;;;0.10;0.10;;;14.80;66.40;;;;;;5032287;28;20602;-50
2023/07/25 01:14:42;;;;;;;0.10;0.10;;;14.90;66.40;;;;;;5032135;28;20203;-48
2023/07/25 01:17:15;;;;;;;0.10;0.10;;;14.90;66.40;;;;;;5032769;28;20228;-47
2023/07/25 01:19:48;;;;;;;0.10;0.10;;;14.90;66.30;;;;;;5032477;28;20200;-48
2023/07/25 01:22:19;;;;;;;0.10;0.10;;;14.90;66.40;;;;;;5032319;28;20295;-48
2023/07/25 01:24:52;;;;;;;0.10;0.10;;;14.90;66.50;;;;;;5044855;28;20242;-48
2023/07/25 01:27:22;;;;;;;0.10;0.10;;;15.00;66.60;;;;;;5051903;28;20299;-47
2023/07/25 01:29:53;;;;;;;0.10;0.10;;;15.00;66.50;;;;;;5048932;28;20223;-48
2023/07/25 01:32:23;;;;;;;0.10;0.10;;;15.00;66.40;;;;;;5051786;28;20204;-47
2023/07/25 01:34:54;;;;;;;0.10;0.10;;;15.10;66.50;;;;;;5040221;28;20199;-48
2023/07/25 01:37:25;;;;;;;0.10;0.10;;;15.10;66.50;;;;;;5041208;28;20208;-48
2023/07/25 01:39:57;;;;;;;0.10;0.10;;;15.10;66.40;;;;;;5048636;28;20242;-49
2023/07/25 01:42:28;;;;;;;0.10;0.10;;;15.10;66.30;;;;;;5034942;28;20200;-50
2023/07/25 01:44:58;;;;;;;0.10;0.10;;;15.20;66.30;;;;;;5032165;28;20656;-49
2023/07/25 01:47:29;;;;;;;0.15;0.15;;;15.20;66.40;;;;;;5031470;28;20220;-52
2023/07/25 01:50:00;;;;;;;0.10;0.10;;;15.20;66.40;;;;;;5032344;28;20591;-47
2023/07/25 01:52:30;;;;;;;0.20;0.20;;;15.20;66.30;;;;;;5031621;28;20196;-51
2023/07/25 01:55:03;;;;;;;0.10;0.10;;;15.20;66.30;;;;;;5031723;28;20246;-50
2023/07/25 01:57:33;;;;;;;0.10;0.10;;;15.20;66.30;;;;;;5031139;28;20224;-48
2023/07/25 02:00:04;;;;;;;0.10;0.10;;;15.30;66.30;;;;;;5045284;28;20195;-49
2023/07/25 02:02:35;;;;;;;0.10;0.10;;;15.30;66.30;;;;;;5052040;28;20191;-48
2023/07/25 02:05:05;;;;;;;0.10;0.10;;;15.30;66.30;;;;;;5034053;28;20578;-48
2023/07/25 02:07:36;;;;;;;0.08;0.08;;;15.30;66.20;;;;;;5041299;28;20215;-48
2023/07/25 02:10:10;;;;;;;0.10;0.10;;;15.40;66.20;;;;;;5031088;28;20208;-51
2023/07/25 02:12:41;;;;;;;0.10;0.10;;;15.40;66.10;;;;;;5031194;28;20204;-48
2023/07/25 02:15:12;;;;;;;0.10;0.10;;;15.40;66.10;;;;;;5030955;28;20197;-49
2023/07/25 02:17:42;;;;;;;0.03;0.03;;;15.40;66.10;;;;;;5031732;28;20231;-48
2023/07/25 02:20:13;;;;;;;0.10;0.10;;;15.40;66.10;;;;;;5030117;28;20196;-47
2023/07/25 02:22:44;;;;;;;0.10;0.10;;;15.50;66.10;;;;;;5044659;28;20725;-47
2023/07/25 02:25:17;;;;;;;0.10;0.10;;;15.50;66.10;;;;;;5037191;28;20207;-48
2023/07/25 02:27:47;;;;;;;0.10;0.10;;;15.50;66.00;;;;;;5031269;28;20232;-50
2023/07/25 02:30:18;;;;;;;0.10;0.10;;;15.50;66.10;;;;;;5031374;28;20219;-48
2023/07/25 02:32:49;;;;;;;0.10;0.10;;;15.50;66.00;;;;;;5031595;28;20215;-47
2023/07/25 02:35:19;;;;;;;0.05;0.05;;;15.60;66.00;;;;;;5036685;28;20207;-47
2023/07/25 02:37:50;;;;;;;0.10;0.10;;;15.60;66.00;;;;;;5051438;28;20713;-48
2023/07/25 02:40:22;;;;;;;0.10;0.10;;;15.70;66.10;;;;;;5051184;28;20196;-48
2023/07/25 02:42:54;;;;;;;0.05;0.05;;;15.70;66.00;;;;;;5031896;28;20533;-48
2023/07/25 02:45:24;;;;;;;0.05;0.05;;;15.70;66.00;;;;;;5031829;28;20339;-48
2023/07/25 02:47:55;;;;;;;0.10;0.10;;;15.70;65.90;;;;;;5031193;28;20623;-47
2023/07/25 02:50:25;;;;;;;0.17;0.17;;;15.80;66.00;;;;;;5031265;28;20227;-49
2023/07/25 02:52:56;;;;;;;0.03;0.03;;;15.80;65.90;;;;;;5031224;28;20207;-49
2023/07/25 02:55:29;;;;;;;0.10;0.10;;;15.80;65.90;;;;;;5031564;28;20200;-52
2023/07/25 02:57:59;;;;;;;0.10;0.10;;;15.80;65.80;;;;;;5031016;28;20220;-50
2023/07/25 03:00:30;;;;;;;0.10;0.10;;;15.90;65.80;;;;;;5050447;28;20196;-49
2023/07/25 03:03:00;;;;;;;0.10;0.10;;;15.90;65.80;;;;;;5051305;28;20195;-51
2023/07/25 03:05:31;;;;;;;0.10;0.10;;;15.90;65.80;;;;;;5051119;28;20647;-49
2023/07/25 03:08:02;;;;;;;0.10;0.10;;;16.00;65.90;;;;;;5041657;28;20228;-51
2023/07/25 03:10:34;;;;;;;0.13;0.13;;;16.00;65.80;;;;;;5030601;28;20235;-51
2023/07/25 03:13:05;;;;;;;0.10;0.10;;;16.10;65.90;;;;;;5031145;28;20218;-47
2023/07/25 03:15:36;;;;;;;0.10;0.10;;;16.10;65.80;;;;;;5030820;28;20258;-50
2023/07/25 03:18:07;;;;;;;0.10;0.10;;;16.10;65.70;;;;;;5030671;28;20232;-48
2023/07/25 03:20:37;;;;;;;0.10;0.10;;;16.10;65.70;;;;;;5050158;28;20207;-49
2023/07/25 03:23:08;;;;;;;0.10;0.10;;;16.20;65.70;;;;;;5048932;28;20191;-49
2023/07/25 03:25:40;;;;;;;0.10;0.10;;;16.20;65.70;;;;;;5051081;28;20572;-50
2023/07/25 03:28:11;;;;;;;0.00;0.00;;;16.20;66.20;;;;;;5040369;28;20719;-48
2023/07/25 03:30:42;;;;;;;0.10;0.10;;;16.30;66.30;;;;;;5032843;28;20219;-47
2023/07/25 03:33:12;;;;;;;0.10;0.10;;;16.30;66.20;;;;;;5030744;28;20656;-47
2023/07/25 03:35:43;;;;;;;0.10;0.10;;;16.30;66.20;;;;;;5038252;28;20290;-47
2023/07/25 03:38:14;;;;;;;0.10;0.10;;;16.30;66.10;;;;;;5034142;28;20322;-48
2023/07/25 03:40:46;;;;;;;0.10;0.10;;;16.40;66.10;;;;;;5030993;28;20203;-48
2023/07/25 03:43:17;;;;;;;0.10;0.10;;;16.40;66.00;;;;;;5030924;28;20196;-47
2023/07/25 03:45:47;;;;;;;0.10;0.10;;;16.40;65.90;;;;;;5031134;28;20200;-48
2023/07/25 03:48:18;;;;;;;0.10;0.10;;;16.50;65.80;;;;;;5030523;28;20231;-51
2023/07/25 03:50:49;;;;;;;0.10;0.10;;;16.50;65.80;;;;;;5030657;28;20235;-47
2023/07/25 03:53:19;;;;;;;0.10;0.10;;;16.50;65.70;;;;;;5032065;28;20215;-48
2023/07/25 03:55:52;;;;;;;0.10;0.10;;;16.60;65.70;;;;;;5037056;28;20204;-48
2023/07/25 03:58:22;;;;;;;0.00;0.00;;;16.60;65.60;;;;;;5041070;28;20227;-52
2023/07/25 04:00:53;;;;;;;0.10;0.10;;;16.60;65.50;;;;;;5043215;28;20195;-47
2023/07/25 04:03:24;;;;;;;0.10;0.10;;;16.60;65.40;;;;;;5053625;28;20199;-50
2023/07/25 04:05:54;;;;;;;0.10;0.10;;;16.60;65.30;;;;;;5047711;28;20222;-48
2023/07/25 04:08:25;;;;;;;0.10;0.10;;;16.70;65.30;;;;;;5053186;28;20269;-49
2023/07/25 04:10:57;;;;;;;0.10;0.10;;;16.70;65.30;;;;;;5049818;28;20224;-49
2023/07/25 04:13:28;;;;;;;0.10;0.10;;;16.70;65.20;;;;;;5041386;28;20198;-51
2023/07/25 04:15:59;;;;;;;0.10;0.10;;;16.70;65.20;;;;;;5045748;28;20192;-49
2023/07/25 04:18:29;;;;;;;0.08;0.08;;;16.70;65.10;;;;;;5034458;28;20637;-48
2023/07/25 04:21:00;;;;;;;0.10;0.10;;;16.70;65.10;;;;;;5047656;28;20230;-48
2023/07/25 04:23:31;;;;;;;0.10;0.10;;;16.80;65.10;;;;;;5053461;28;20199;-50
2023/07/25 04:26:03;;;;;;;0.00;0.00;;;16.80;65.00;;;;;;5049522;28;20608;-49
2023/07/25 04:28:34;;;;;;;0.10;0.10;;;16.90;65.10;;;;;;5039854;28;20581;-53
2023/07/25 04:31:04;;;;;;;0.10;0.10;;;16.90;64.90;;;;;;5047765;28;20226;-53
2023/07/25 04:33:35;;;;;;;0.00;0.00;;;16.90;64.90;;;;;;5053458;28;20191;-49
2023/07/25 04:36:06;;;;;;;0.10;0.10;;;16.90;64.90;;;;;;5052328;28;20202;-50
2023/07/25 04:38:36;;;;;;;0.10;0.10;;;17.00;64.80;;;;;;5033810;28;20220;-50
2023/07/25 04:41:09;;;;;;;0.10;0.10;;;17.00;64.80;;;;;;5032693;28;20211;-48
2023/07/25 04:43:39;;;;;;;0.10;0.10;;;17.00;64.70;;;;;;5032324;28;20599;-47
2023/07/25 04:46:10;;;;;;;0.10;0.10;;;17.00;64.60;;;;;;5032766;28;20189;-47
2023/07/25 04:48:41;;;;;;;0.10;0.10;;;17.10;64.70;;;;;;5041734;28;20220;-49
2023/07/25 04:51:11;;;;;;;0.00;0.00;;;17.10;64.60;;;;;;5050482;28;20215;-48
2023/07/25 04:53:42;;;;;;;0.10;0.10;;;17.10;64.60;;;;;;5047258;28;20196;-49
2023/07/25 04:56:14;;;;;;;0.10;0.10;;;17.10;65.30;;;;;;5047276;28;20195;-47
2023/07/25 04:58:45;;;;;;;0.10;0.10;;;17.10;64.50;;;;;;5038820;28;20211;-50
2023/07/25 05:01:15;;;;;;;0.00;0.00;;;17.10;64.40;;;;;;5038138;28;20201;-51
2023/07/25 05:03:46;;;;;;;0.10;0.10;;;17.10;64.40;;;;;;5032060;28;20208;-49
2023/07/25 05:06:17;;;;;;;0.08;0.08;;;17.10;64.40;;;;;;5044628;28;20599;-47
2023/07/25 05:08:47;;;;;;;0.10;0.10;;;17.10;64.40;;;;;;5036020;28;20229;-47
2023/07/25 05:11:20;;;;;;;0.10;0.10;;;17.10;64.40;;;;;;5038670;28;20228;-47
2023/07/25 05:13:50;;;;;;;0.10;0.10;;;17.10;64.30;;;;;;5032747;28;20203;-49
2023/07/25 05:16:22;;;;;;;0.03;0.03;;;17.10;64.20;;;;;;5045470;28;20195;-50
2023/07/25 05:18:53;;;;;;;0.00;0.00;;;17.10;64.10;;;;;;5048326;28;20656;-48
2023/07/25 05:21:23;;;;;;;0.10;0.10;;;17.10;64.00;;;;;;5038415;28;20193;-47
2023/07/25 05:23:54;;;;;;;0.10;0.10;;;17.10;63.90;;;;;;5032699;28;20192;-48
2023/07/25 05:26:26;;;;;;;0.10;0.10;;;17.10;63.80;;;;;;5032644;28;20196;-47
2023/07/25 05:28:57;;;;;;;0.10;0.10;;;17.10;63.80;;;;;;5032665;28;20207;-48
2023/07/25 05:31:28;;;;;;;0.08;0.08;;;17.10;63.60;;;;;;5031593;28;20216;-48
2023/07/25 05:33:58;;;;;;;0.10;0.10;;;17.10;63.60;;;;;;5032199;28;20569;-51
2023/07/25 05:36:29;;;;;;;0.10;0.10;;;17.00;63.60;;;;;;5046837;28;20187;-51
2023/07/25 05:38:59;;;;;;;0.10;0.10;;;17.00;63.60;;;;;;5051962;28;20278;-49
2023/07/25 05:41:32;;;;;;;0.10;0.10;;;17.10;63.70;;;;;;5048294;28;20203;-49
2023/07/25 05:44:03;;;;;;;0.20;0.20;;;17.00;63.70;;;;;;5052017;28;20278;-47
2023/07/25 05:46:33;;;;;;;0.10;0.10;;;17.00;63.70;;;;;;5051411;28;20682;-49
2023/07/25 05:49:04;;;;;;;0.10;0.10;;;17.00;63.60;;;;;;5052169;28;20202;-50
2023/07/25 05:51:35;;;;;;;0.10;0.10;;;17.00;63.50;;;;;;5031728;28;20310;-48
2023/07/25 05:54:05;;;;;;;0.10;0.10;;;17.00;63.50;;;;;;5032429;28;20201;-48
2023/07/25 05:56:38;;;;;;;0.10;0.10;;;17.00;63.40;;;;;;5032418;28;20554;-50
2023/07/25 05:59:08;;;;;;;0.00;0.00;;;17.00;63.30;;;;;;5036818;28;20198;-50
2023/07/25 06:01:41;;;;;;;0.10;0.10;;;17.00;63.30;;;;;;5037000;28;20200;-51
2023/07/25 06:04:13;;;;;;;0.10;0.10;;;17.00;63.20;;;;;;5032348;28;20196;-48
2023/07/25 06:06:44;;;;;;;0.10;0.10;;;17.00;63.20;;;;;;5047935;28;20586;-49
2023/07/25 06:09:14;;;;;;;0.10;0.10;;;17.00;63.30;;;;;;5052102;28;20258;-47
2023/07/25 06:11:47;;;;;;;0.10;0.10;;;16.90;63.20;;;;;;5051021;28;20227;-48
2023/07/25 06:14:17;;;;;;;0.10;0.10;;;16.90;63.10;;;;;;5046139;28;20657;-51
2023/07/25 06:16:48;;;;;;;0.10;0.10;;;16.90;63.10;;;;;;5045744;28;20226;-49
2023/07/25 06:19:19;;;;;;;0.10;0.10;;;16.90;63.10;;;;;;5051020;28;20191;-47
2023/07/25 06:21:49;;;;;;;0.10;0.10;;;16.90;63.00;;;;;;5050999;28;20192;-47
2023/07/25 06:24:20;;;;;;;0.00;0.00;;;16.90;63.00;;;;;;5050918;28;20660;-50
2023/07/25 06:26:52;;;;;;;0.10;0.10;;;16.90;63.00;;;;;;5050876;28;20569;-48
2023/07/25 06:29:23;;;;;;;0.00;0.00;;;16.90;63.00;;;;;;5033352;28;20569;-49
2023/07/25 06:31:54;;;;;;;0.10;0.10;;;16.90;63.00;;;;;;5044800;28;20242;-47
2023/07/25 06:34:27;;;;;;;0.00;0.00;;;16.80;63.00;;;;;;5051013;28;20222;-49
2023/07/25 06:36:58;;;;;;;0.10;0.10;;;16.80;63.00;;;;;;5049913;28;20281;-49
2023/07/25 06:39:29;;;;;;;0.10;0.10;;;16.80;63.00;;;;;;5051257;28;20218;-51
2023/07/25 06:42:01;;;;;;;0.10;0.10;;;16.80;63.00;;;;;;5050492;28;20192;-48
2023/07/25 06:44:32;;;;;;;0.05;0.05;;;16.80;63.00;;;;;;5050745;28;20195;-50
2023/07/25 06:47:02;;;;;;;0.10;0.10;;;16.80;63.00;;;;;;5050140;28;20222;-48
2023/07/25 06:49:34;;;;;;;0.00;0.00;;;16.80;62.90;;;;;;5046262;28;20196;-48
2023/07/25 06:52:04;;;;;;;0.10;0.10;;;16.80;62.90;;;;;;5030403;28;20219;-47
2023/07/25 06:54:35;;;;;;;0.10;0.10;;;16.80;62.90;;;;;;5031570;28;20207;-49
2023/07/25 06:57:08;;;;;;;0.00;0.00;;;16.70;62.80;;;;;;5034174;28;20679;-48
2023/07/25 06:59:38;;;;;;;0.10;0.10;;;16.70;62.80;;;;;;5031422;28;20199;-49
2023/07/25 07:02:09;;;;;;;0.10;0.10;;;16.70;62.70;;;;;;5030524;28;20204;-50
2023/07/25 07:04:40;;;;;;;0.17;0.17;;;16.70;62.70;;;;;;5031363;28;20219;-48
2023/07/25 07:07:10;;;;;;;0.10;0.10;;;16.70;62.70;;;;;;5031401;28;20709;-48
2023/07/25 07:09:41;;;;;;;0.10;0.10;;;16.70;62.70;;;;;;5030762;28;20204;-47
2023/07/25 07:12:15;;;;;;;0.10;0.10;;;16.70;62.70;;;;;;5030542;28;20234;-47
2023/07/25 07:14:46;;;;;;;0.10;0.10;;;16.60;62.70;;;;;;5030730;28;20191;-47
2023/07/25 07:17:17;;;;;;;0.10;0.10;;;16.60;62.60;;;;;;5032011;28;20708;-51
2023/07/25 07:19:47;;;;;;;0.10;0.10;;;16.70;62.70;;;;;;5031145;28;20196;-47
2023/07/25 07:22:18;;;;;;;0.03;0.03;;;16.60;62.70;;;;;;5031107;28;20206;-49
2023/07/25 07:24:49;;;;;;;0.10;0.10;;;16.60;62.70;;;;;;5030737;28;20196;-48
2023/07/25 07:27:22;;;;;;;0.10;0.10;;;16.60;62.80;;;;;;5032217;28;20719;-49
2023/07/25 07:29:54;;;;;;;0.10;0.10;;;16.60;62.80;;;;;;5035152;28;20648;-49
2023/07/25 07:32:25;;;;;;;0.10;0.10;;;16.60;62.80;;;;;;5037398;28;20216;-48
2023/07/25 07:34:55;;;;;;;0.10;0.10;;;16.60;62.80;;;;;;5034992;28;20399;-49
2023/07/25 07:37:26;;;;;;;0.10;0.10;;;16.60;62.80;;;;;;5052116;28;20580;-51
2023/07/25 07:39:57;;;;;;;0.10;0.10;;;16.60;62.70;;;;;;5046858;28;20200;-47
2023/07/25 07:42:29;;;;;;;0.10;0.10;;;16.60;62.70;;;;;;5053343;28;20391;-49
2023/07/25 07:45:00;;;;;;;0.10;0.10;;;16.60;62.70;;;;;;5054759;28;20195;-49
2023/07/25 07:47:30;;;;;;;0.10;0.10;;;16.60;62.70;;;;;;5053494;28;20556;-46
2023/07/25 07:50:01;;;;;;;0.00;0.00;;;16.60;63.00;;;;;;5047226;28;20196;-46
2023/07/25 07:52:32;;;;;;;0.03;0.03;;;16.60;63.20;;;;;;5034575;28;20684;-49
2023/07/25 07:55:03;;;;;;;0.10;0.10;;;16.60;63.20;;;;;;5054360;28;20188;-46
2023/07/25 07:57:39;;;;;;;0.10;0.10;;;16.60;63.20;;;;;;5053845;28;20879;-46
2023/07/25 08:00:11;;;;;;;0.10;0.10;;;16.60;63.20;;;;;;5052765;28;20214;-45
2023/07/25 08:02:42;;;;;;;0.10;0.10;;;16.60;63.20;;;;;;5053005;28;20663;-49
2023/07/25 08:05:14;;;;;;;0.10;0.10;;;16.60;63.20;;;;;;5054195;28;20196;-48
2023/07/25 08:07:45;;;;;;;0.00;0.00;;;16.50;63.10;;;;;;5054065;28;20690;-46
2023/07/25 08:10:19;;;;;;;0.00;0.00;;;16.60;63.20;;;;;;5053392;28;20187;-46
2023/07/25 08:12:51;;;;;;;0.10;0.10;;;16.60;64.00;;;;;;5052607;28;20875;-46
2023/07/25 08:15:22;;;;;;;0.10;0.10;;;16.50;63.00;;;;;;5044412;28;21321;-47
2023/07/25 08:17:52;;;;;;;0.05;0.05;;;16.50;63.00;;;;;;5034254;28;20220;-47
2023/07/25 08:20:23;;;;;;;0.10;0.10;;;16.50;62.90;;;;;;5042500;28;20651;-48
2023/07/25 08:22:54;;;;;;;0.10;0.10;;;16.50;62.90;;;;;;5053921;28;20199;-49
2023/07/25 08:25:24;;;;;;;0.10;0.10;;;16.50;62.80;;;;;;5040750;28;20195;-48
2023/07/25 08:27:57;;;;;;;0.10;0.10;;;16.50;62.80;;;;;;5033751;28;20220;-47
2023/07/25 08:30:27;;;;;;;0.00;0.00;;;16.50;62.80;;;;;;5045010;28;20219;-48
2023/07/25 08:32:58;;;;;;;0.10;0.10;;;16.50;62.80;;;;;;5053667;28;20234;-45
2023/07/25 08:35:29;;;;;;;0.00;0.00;;;16.50;62.80;;;;;;5053354;28;20278;-49
2023/07/25 08:37:59;;;;;;;0.00;0.00;;;16.50;62.80;;;;;;5052515;28;20211;-46
2023/07/25 08:40:30;;;;;;;0.10;0.10;;;16.50;62.70;;;;;;5053088;28;20595;-46
2023/07/25 08:43:08;;;;;;;0.10;0.10;;;16.40;62.70;;;;;;5053183;28;20196;-47
2023/07/25 08:45:39;;;;;;;0.10;0.10;;;16.40;62.70;;;;;;5051965;28;20195;-48
2023/07/25 08:48:15;;;;;;;0.10;0.10;;;16.40;62.70;;;;;;5052081;28;20219;-45
2023/07/25 08:50:48;;;;;;;0.10;0.10;;;16.40;62.80;;;;;;5047850;28;20199;-47
2023/07/25 08:53:19;;;;;;;0.10;0.10;;;16.40;62.70;;;;;;5048983;28;20220;-46
2023/07/25 08:55:50;;;;;;;0.10;0.10;;;16.40;62.70;;;;;;5046699;28;20653;-46
2023/07/25 08:58:23;;;;;;;0.10;0.10;;;16.40;62.70;;;;;;5052233;28;20211;-46
2023/07/25 09:00:55;;;;;;;0.10;0.10;;;16.30;62.60;;;;;;5052706;28;20195;-46
2023/07/25 09:03:27;;;;;;;0.10;0.10;;;16.30;62.60;;;;;;5053673;28;20203;-46
2023/07/25 09:06:00;;;;;;;0.10;0.10;;;16.30;62.50;;;;;;5053545;28;20199;-45
2023/07/25 09:08:30;;;;;;;0.10;0.10;;;16.30;62.50;;;;;;5053480;28;20226;-48
2023/07/25 09:11:02;;;;;;;0.10;0.10;;;16.30;62.60;;;;;;5052556;28;20199;-45
2023/07/25 09:13:35;;;;;;;0.10;0.10;;;16.30;62.50;;;;;;5053243;28;20239;-46
2023/07/25 09:16:06;;;;;;;0.10;0.10;;;16.30;62.60;;;;;;5051501;28;20790;-45
2023/07/25 09:18:37;;;;;;;0.10;0.10;;;16.30;62.50;;;;;;5040039;28;20211;-47
2023/07/25 09:21:07;;;;;;;0.10;0.10;;;16.30;62.50;;;;;;5032900;28;20208;-46
2023/07/25 09:23:39;;;;;;;0.10;0.10;;;16.30;62.60;;;;;;5040668;28;20192;-48
2023/07/25 09:26:11;;;;;;;0.10;0.10;;;16.30;62.60;;;;;;5032402;28;20196;-47
2023/07/25 09:28:51;;;;;;;0.10;0.10;;;16.30;62.60;;;;;;5034284;28;20212;-48
2023/07/25 09:31:23;;;;;;;0.13;0.13;;;16.20;63.30;;;;;;5048196;28;20234;-49
2023/07/25 09:33:55;;;;;;;0.00;0.00;;;16.20;62.50;;;;;;5032461;28;20232;-46
2023/07/25 09:36:31;;;;;;;0.10;0.10;;;16.20;62.50;;;;;;5049159;28;20196;-47
2023/07/25 09:39:02;;;;;;;0.10;0.10;;;16.20;62.60;;;;;;5052349;28;20196;-46
2023/07/25 09:41:37;;;;;;;0.10;0.10;;;16.20;62.50;;;;;;5052240;28;20191;-46
2023/07/25 09:44:10;;;;;;;0.10;0.10;;;16.20;62.50;;;;;;5051541;28;20202;-46
2023/07/25 09:46:41;;;;;;;0.10;0.10;;;16.20;62.50;;;;;;5051176;28;20188;-48
2023/07/25 09:49:11;;;;;;;0.10;0.10;;;16.10;62.50;;;;;;5051939;28;20553;-49
2023/07/25 09:51:58;;;;;;;0.00;0.00;;;16.10;62.50;;;;;;5051162;28;20192;-46
2023/07/25 09:54:29;;;;;;;0.10;0.10;;;16.10;62.40;;;;;;5050901;28;20227;-49
2023/07/25 09:56:59;;;;;;;0.10;0.10;;;16.10;62.40;;;;;;5051379;28;20215;-49
2023/07/25 09:59:32;;;;;;;0.00;0.00;;;16.10;62.50;;;;;;5051376;28;20366;-48
2023/07/25 10:02:04;;;;;;;0.10;0.10;;;16.10;62.50;;;;;;5050564;28;20605;-48
2023/07/25 10:04:37;;;;;;;0.10;0.10;;;16.10;62.50;;;;;;5049172;28;20210;-48
2023/07/25 10:07:10;;;;;;;0.10;0.10;;;16.00;62.50;;;;;;5050856;28;20254;-48
2023/07/25 10:09:41;;;;;;;0.10;0.10;;;16.00;62.40;;;;;;5052584;28;20622;-46
2023/07/25 10:12:12;;;;;;;0.03;0.03;;;16.00;63.20;;;;;;5041019;28;20671;-45
2023/07/25 10:14:45;;;;;;;0.10;0.10;;;16.00;62.50;;;;;;5031927;28;20213;-46
2023/07/25 10:17:15;;;;;;;0.10;0.10;;;16.00;62.40;;;;;;5042293;28;20219;-47
2023/07/25 10:19:51;;;;;;;0.10;0.10;;;16.00;62.40;;;;;;5051861;28;20545;-48
2023/07/25 10:22:38;;;;;;;0.10;0.10;;;16.00;62.50;;;;;;5051777;28;20571;-45
2023/07/25 10:25:12;;;;;;;0.10;0.10;;;15.90;62.30;;;;;;5048237;28;20199;-46
2023/07/25 10:27:43;;;;;;;0.10;0.10;;;15.90;62.20;;;;;;5041001;28;20223;-47
2023/07/25 10:30:43;;;;;;;0.10;0.10;;;15.90;62.20;;;;;;5031670;28;20199;-49
2023/07/25 10:33:16;;;;;;;0.10;0.10;;;15.90;62.20;;;;;;5032579;28;20255;-49
2023/07/25 10:35:54;;;;;;;0.10;0.10;;;15.90;62.20;;;;;;5039752;28;20203;-46
2023/07/25 10:38:32;;;;;;;0.10;0.10;;;15.90;62.20;;;;;;5049879;28;20303;-49
2023/07/25 10:41:03;;;;;;;0.10;0.10;;;15.90;62.20;;;;;;5050980;28;20238;-46
2023/07/25 10:43:59;;;;;;;0.10;0.10;;;15.90;62.20;;;;;;5051139;28;20196;-45
2023/07/25 10:46:33;;;;;;;0.10;0.10;;;15.80;62.20;;;;;;5050852;28;20287;-45
2023/07/25 10:49:05;;;;;;;0.10;0.10;;;15.80;62.10;;;;;;5048908;28;20670;-47
2023/07/25 10:51:53;;;;;;;0.08;0.08;;;15.80;62.20;;;;;;5051574;28;20204;-46
2023/07/25 10:54:27;;;;;;;0.15;0.15;;;15.80;62.20;;;;;;5050764;28;20251;-49
2023/07/25 10:57:17;;;;;;;0.10;0.10;;;15.80;62.20;;;;;;5048783;28;20234;-48
2023/07/25 11:00:01;;;;;;;0.00;0.00;;;15.80;62.30;;;;;;5031262;28;20203;-50
2023/07/25 11:02:35;;;;;;;0.10;0.10;;;15.80;62.30;;;;;;5038095;28;20293;-47
2023/07/25 11:05:29;;;;;;;0.10;0.10;;;15.70;62.20;;;;;;5050850;28;20245;-48
2023/07/25 11:08:00;;;;;;;0.00;0.00;;;15.70;62.20;;;;;;5029331;28;20212;-47
2023/07/25 11:10:31;;;;;;;0.08;0.08;;;15.70;62.20;;;;;;5031198;28;20254;-46
2023/07/25 11:13:02;;;;;;;0.10;0.10;;;15.70;62.20;;;;;;5047540;28;20234;-48
2023/07/25 11:15:34;;;;;;;0.10;0.10;;;15.70;62.20;;;;;;5044771;28;20203;-48
2023/07/25 11:18:11;;;;;;;0.10;0.10;;;15.70;62.30;;;;;;5040579;28;20215;-46
2023/07/25 11:20:41;;;;;;;0.00;0.00;;;15.70;62.20;;;;;;5040206;28;20220;-48
2023/07/25 11:23:13;;;;;;;0.10;0.10;;;15.70;62.20;;;;;;5039149;28;20210;-52
2023/07/25 11:25:43;;;;;;;0.10;0.10;;;15.70;62.20;;;;;;5040313;28;20275;-45
2023/07/25 11:28:16;;;;;;;0.10;0.10;;;15.70;62.20;;;;;;5041049;28;20212;-48
2023/07/25 11:30:47;;;;;;;0.10;0.10;;;15.70;62.20;;;;;;5040165;28;20207;-48
2023/07/25 11:33:19;;;;;;;0.10;0.10;;;15.70;62.20;;;;;;5041018;28;20223;-47
2023/07/25 11:35:55;;;;;;;0.10;0.10;;;15.70;62.20;;;;;;5039868;28;20191;-48
2023/07/25 11:38:28;;;;;;;0.00;0.00;;;15.60;62.10;;;;;;5040670;28;20211;-45
2023/07/25 11:40:59;;;;;;;0.10;0.10;;;15.60;62.10;;;;;;5039618;28;20200;-46
2023/07/25 11:43:33;;;;;;;0.10;0.10;;;15.60;62.10;;;;;;5038864;28;20183;-49
2023/07/25 11:46:03;;;;;;;0.00;0.00;;;15.60;62.00;;;;;;5040309;28;20612;-47
2023/07/25 11:48:36;;;;;;;0.10;0.10;;;15.60;62.10;;;;;;5038883;28;20215;-48
2023/07/25 11:51:07;;;;;;;0.10;0.10;;;15.60;62.10;;;;;;5039386;28;20503;-47
2023/07/25 11:53:38;;;;;;;0.10;0.10;;;15.60;62.10;;;;;;5039261;28;20220;-46
2023/07/25 11:56:08;;;;;;;0.10;0.10;;;15.60;62.10;;;;;;5038778;28;20541;-47
2023/07/25 11:58:39;;;;;;;0.10;0.10;;;15.60;62.00;;;;;;5038433;28;20208;-46
2023/07/25 12:01:13;;;;;;;0.10;0.10;;;15.60;62.00;;;;;;5038958;28;20611;-46
2023/07/25 12:03:49;;;;;;;0.10;0.10;;;15.50;62.00;;;;;;5039481;28;20200;-47
2023/07/25 12:06:30;;;;;;;0.10;0.10;;;15.50;62.00;;;;;;5039634;28;20196;-49
2023/07/25 12:09:01;;;;;;;0.10;0.10;;;15.50;61.90;;;;;;5039206;28;20215;-48
2023/07/25 12:11:33;;;;;;;0.15;0.15;;;15.50;61.90;;;;;;5038500;28;20591;-46
2023/07/25 12:14:04;;;;;;;0.10;0.10;;;15.50;62.00;;;;;;5041683;28;20219;-54
2023/07/25 12:16:36;;;;;;;0.10;0.10;;;15.50;61.90;;;;;;5045613;28;20710;-51
2023/07/25 12:19:10;;;;;;;0.10;0.10;;;15.50;62.00;;;;;;5044088;28;20275;-51
2023/07/25 12:21:43;;;;;;;0.10;0.10;;;15.50;62.00;;;;;;5043651;28;20188;-53
2023/07/25 12:24:14;;;;;;;0.10;0.10;;;15.40;61.90;;;;;;5043777;28;20192;-50
2023/07/25 12:26:48;;;;;;;0.13;0.13;;;15.40;61.90;;;;;;5043654;28;20195;-52
2023/07/25 12:29:21;;;;;;;0.10;0.10;;;15.40;61.90;;;;;;5043115;28;20202;-52
2023/07/25 12:31:52;;;;;;;0.10;0.10;;;15.40;61.90;;;;;;5042947;28;20199;-49
2023/07/25 12:34:24;;;;;;;0.10;0.10;;;15.40;62.00;;;;;;5043679;28;20220;-54
2023/07/25 12:36:55;;;;;;;0.10;0.10;;;15.40;62.00;;;;;;5043582;28;20253;-50
2023/07/25 12:39:26;;;;;;;0.10;0.10;;;15.40;61.90;;;;;;5043796;28;20189;-47
2023/07/25 12:41:57;;;;;;;0.10;0.10;;;15.40;61.90;;;;;;5042345;28;20188;-48
2023/07/25 12:44:27;;;;;;;0.20;0.20;;;15.40;61.90;;;;;;5043792;28;20279;-45
2023/07/25 12:46:58;;;;;;;0.10;0.10;;;15.40;61.90;;;;;;5042716;28;20216;-45
2023/07/25 12:49:32;;;;;;;0.10;0.10;;;15.40;61.90;;;;;;5043516;28;20681;-46
2023/07/25 12:52:03;;;;;;;0.10;0.10;;;15.40;61.90;;;;;;5043203;28;20191;-46
2023/07/25 12:54:33;;;;;;;0.10;0.10;;;15.40;61.90;;;;;;5034134;28;20722;-48
2023/07/25 12:57:04;;;;;;;0.10;0.10;;;15.30;61.80;;;;;;5033517;28;20224;-45
2023/07/25 12:59:34;;;;;;;0.10;0.10;;;15.30;61.90;;;;;;5039860;28;20840;-45
2023/07/25 13:02:05;;;;;;;0.10;0.10;;;15.30;61.90;;;;;;5053546;28;20369;-45
2023/07/25 13:04:39;;;;;;;0.10;0.10;;;15.30;61.80;;;;;;5053564;28;20202;-45
2023/07/25 13:07:09;;;;;;;0.10;0.10;;;15.30;61.90;;;;;;5033234;28;20307;-46
2023/07/25 13:09:40;;;;;;;0.10;0.10;;;15.30;61.80;;;;;;5033275;28;20258;-45
2023/07/25 13:12:11;;;;;;;0.10;0.10;;;15.30;61.80;;;;;;5033404;28;20199;-45